Iva, Indiana
Current Conditions -  °F | °C
As of 12:55 PM on Friday 28 Nov 2014 (Local Time) from KDCY Reporting Station
Clear Clear  
Wind Chill: 29°   Ceiling: Unl
Heat Index: 38°   Visibility: 10mi
Dew Point: 31°   Wind: 16mph
Humidity: 75%   Direction: 170°S
Pressure: 30.2"   Gusts: NA
Location:  38.4809°N, 87.101°W
Report Text: KDCY 281855Z AUTO 17014KT 10SM CLR 03/M01 A3020 RMK AO2 T00331008
Loading
Personal Weather Stations






























Interactive Weather Map New forecast layout! Learn more

10-Day Weather Forecast

Advertisements
Track Severe Weather on mobile